createdAt,value
2022-12-29T00:01:47.140Z,4.86
2022-12-29T00:04:51.944Z,4.85
2022-12-29T00:07:55.184Z,4.85
2022-12-29T00:10:58.383Z,4.85
2022-12-29T00:14:25.683Z,4.85
2022-12-29T00:17:29.327Z,4.85
2022-12-29T00:20:54.308Z,4.84
2022-12-29T00:24:16.178Z,4.83
2022-12-29T00:27:38.260Z,4.83
2022-12-29T00:30:59.927Z,4.83
2022-12-29T00:34:21.729Z,4.83
2022-12-29T00:37:45.086Z,4.83
2022-12-29T00:41:08.417Z,4.83
2022-12-29T00:44:14.661Z,4.83
2022-12-29T00:47:18.332Z,4.84
2022-12-29T00:50:21.966Z,4.83
2022-12-29T00:53:26.498Z,4.83
2022-12-29T00:56:29.873Z,4.83
2022-12-29T00:59:35.488Z,4.83
2022-12-29T01:02:38.761Z,4.83
2022-12-29T01:05:44.134Z,4.84
2022-12-29T01:08:47.321Z,4.85
2022-12-29T01:11:51.080Z,4.87
2022-12-29T01:14:54.509Z,4.88
2022-12-29T01:17:57.737Z,4.90
2022-12-29T01:21:06.523Z,4.91
2022-12-29T01:24:10.793Z,4.93
2022-12-29T01:27:14.032Z,4.94
2022-12-29T01:30:18.344Z,4.96
2022-12-29T01:33:21.629Z,4.97
2022-12-29T01:36:26.035Z,4.98
2022-12-29T01:39:29.340Z,4.99
2022-12-29T01:42:32.651Z,5.01
2022-12-29T01:45:36.808Z,5.02
2022-12-29T01:48:41.661Z,5.02
2022-12-29T01:52:06.365Z,5.03
2022-12-29T01:55:12.206Z,5.04
2022-12-29T01:58:18.856Z,5.05
2022-12-29T02:01:22.894Z,5.06
2022-12-29T02:04:30.793Z,5.07
2022-12-29T02:07:34.455Z,5.07
2022-12-29T02:10:38.773Z,5.07
2022-12-29T02:13:42.089Z,5.07
2022-12-29T02:17:09.783Z,5.09
2022-12-29T02:20:13.128Z,5.11
2022-12-29T02:23:43.737Z,5.12
2022-12-29T02:26:52.968Z,5.14
2022-12-29T02:30:35.841Z,5.15
2022-12-29T02:33:41.977Z,5.17
2022-12-29T02:36:52.407Z,5.18
2022-12-29T02:40:09.761Z,5.20
2022-12-29T02:43:22.000Z,5.21
2022-12-29T02:46:37.050Z,5.22
2022-12-29T02:49:57.220Z,5.23
2022-12-29T02:53:07.874Z,5.24
2022-12-29T02:56:11.311Z,5.26
2022-12-29T02:59:15.199Z,5.26
2022-12-29T03:02:27.409Z,5.27
2022-12-29T03:05:49.139Z,5.28
2022-12-29T03:08:58.304Z,5.28
2022-12-29T03:12:19.946Z,5.28
2022-12-29T03:15:53.806Z,5.29
2022-12-29T03:19:13.279Z,5.29
2022-12-29T03:22:31.734Z,5.29
2022-12-29T03:25:47.288Z,5.29
2022-12-29T03:28:54.524Z,5.29
2022-12-29T03:32:02.461Z,5.28
2022-12-29T03:35:08.529Z,5.27
2022-12-29T03:38:19.678Z,5.26
2022-12-29T03:41:29.960Z,5.27
2022-12-29T03:44:40.263Z,5.27
2022-12-29T03:47:44.403Z,5.28
2022-12-29T03:50:48.342Z,5.28
2022-12-29T03:53:52.013Z,5.29
2022-12-29T03:56:55.368Z,5.28
2022-12-29T04:00:08.369Z,5.29
2022-12-29T04:03:18.353Z,5.28
2022-12-29T04:06:21.722Z,5.28
2022-12-29T04:09:31.057Z,5.27
2022-12-29T04:12:34.978Z,5.26
2022-12-29T04:15:38.643Z,5.26
2022-12-29T04:18:42.164Z,5.26
2022-12-29T04:21:45.504Z,5.25
2022-12-29T04:24:48.823Z,5.25
2022-12-29T04:27:52.083Z,5.24
2022-12-29T04:31:20.469Z,5.24
2022-12-29T04:34:26.046Z,5.24
2022-12-29T04:37:29.290Z,5.23
2022-12-29T04:40:33.615Z,5.23
2022-12-29T04:43:37.690Z,5.22
2022-12-29T04:47:06.840Z,5.21
2022-12-29T04:50:26.385Z,5.21
2022-12-29T04:53:49.803Z,5.21
2022-12-29T04:56:53.027Z,5.21
2022-12-29T04:59:56.292Z,5.21
2022-12-29T05:03:00.535Z,5.22
2022-12-29T05:06:05.287Z,5.21
2022-12-29T05:09:09.156Z,5.21
2022-12-29T05:12:12.745Z,5.21
2022-12-29T05:15:23.848Z,5.21
2022-12-29T05:18:27.148Z,5.22
2022-12-29T05:21:30.855Z,5.21
2022-12-29T05:24:35.212Z,5.21
2022-12-29T05:27:38.744Z,5.20
2022-12-29T05:31:06.404Z,5.20
2022-12-29T05:34:12.198Z,5.20
2022-12-29T05:37:16.466Z,5.19
2022-12-29T05:40:21.666Z,5.18
2022-12-29T05:43:25.025Z,5.18
2022-12-29T05:46:48.453Z,5.18
2022-12-29T05:50:11.989Z,5.17
2022-12-29T05:53:35.159Z,5.16
2022-12-29T05:56:38.749Z,5.15
2022-12-29T05:59:42.010Z,5.14
2022-12-29T06:02:45.517Z,5.14
2022-12-29T06:05:49.806Z,5.14
2022-12-29T06:08:53.671Z,5.14
2022-12-29T06:11:57.105Z,5.14
2022-12-29T06:15:00.537Z,5.14
2022-12-29T06:18:04.034Z,5.13
2022-12-29T06:21:07.347Z,5.14
2022-12-29T06:24:12.093Z,5.14
2022-12-29T06:27:15.693Z,5.15
2022-12-29T06:30:19.053Z,5.16
2022-12-29T06:33:22.328Z,5.18
2022-12-29T06:36:25.634Z,5.17
2022-12-29T06:39:28.927Z,5.17
2022-12-29T06:42:42.278Z,5.17
2022-12-29T06:46:06.567Z,5.17
2022-12-29T06:49:09.979Z,5.16
2022-12-29T06:52:14.024Z,5.15
2022-12-29T06:55:17.502Z,5.14
2022-12-29T06:58:21.116Z,5.14
2022-12-29T07:01:24.495Z,5.13
2022-12-29T07:04:27.900Z,5.13
2022-12-29T07:07:31.173Z,5.12
2022-12-29T07:10:35.251Z,5.13
2022-12-29T07:13:38.872Z,5.13
2022-12-29T07:16:42.317Z,5.14
2022-12-29T07:19:46.234Z,5.15
2022-12-29T07:22:49.516Z,5.17
2022-12-29T07:26:04.321Z,5.19
2022-12-29T07:29:07.536Z,5.21
2022-12-29T07:32:10.979Z,5.23
2022-12-29T07:35:14.362Z,5.25
2022-12-29T07:38:17.992Z,5.26
2022-12-29T07:41:21.303Z,5.28
2022-12-29T07:44:24.551Z,5.30
2022-12-29T07:47:50.564Z,5.33
2022-12-29T07:50:54.765Z,5.36
2022-12-29T07:53:58.055Z,5.39
2022-12-29T07:57:01.618Z,5.43
2022-12-29T08:00:05.224Z,5.47
2022-12-29T08:03:15.114Z,5.53
2022-12-29T08:06:19.588Z,5.58
2022-12-29T08:09:24.285Z,5.64
2022-12-29T08:12:28.030Z,5.70
2022-12-29T08:15:32.701Z,5.77
2022-12-29T08:18:36.123Z,5.84
2022-12-29T08:21:39.716Z,5.91
2022-12-29T08:24:42.963Z,5.99
2022-12-29T08:27:46.316Z,6.07
2022-12-29T08:30:49.674Z,6.17
2022-12-29T08:33:53.115Z,6.26
2022-12-29T08:36:57.398Z,6.35
2022-12-29T08:40:04.687Z,6.42
2022-12-29T08:43:08.843Z,6.47
2022-12-29T08:46:12.277Z,6.54
2022-12-29T08:49:16.185Z,6.64
2022-12-29T08:52:19.891Z,6.76
2022-12-29T08:55:23.073Z,6.88
2022-12-29T08:58:28.558Z,6.98
2022-12-29T09:01:32.220Z,7.08
2022-12-29T09:04:35.910Z,7.17
2022-12-29T09:07:39.529Z,7.26
2022-12-29T09:10:43.570Z,7.34
2022-12-29T09:13:47.486Z,7.43
2022-12-29T09:17:11.417Z,7.50
2022-12-29T09:20:17.378Z,7.56
2022-12-29T09:23:20.534Z,7.62
2022-12-29T09:26:23.743Z,7.68
2022-12-29T09:29:26.946Z,7.73
2022-12-29T09:32:33.852Z,7.76
2022-12-29T09:35:37.898Z,7.78
2022-12-29T09:38:41.200Z,7.80
2022-12-29T09:42:24.131Z,7.82
2022-12-29T09:45:41.700Z,7.84
2022-12-29T09:48:50.345Z,7.86
2022-12-29T09:51:58.670Z,7.90
2022-12-29T09:55:13.575Z,7.92
2022-12-29T09:58:32.031Z,7.95
2022-12-29T10:01:45.814Z,7.95
2022-12-29T10:04:49.319Z,7.96
2022-12-29T10:08:12.565Z,7.94
2022-12-29T10:11:53.836Z,7.93
2022-12-29T10:15:26.414Z,7.95
2022-12-29T10:18:42.230Z,7.97
2022-12-29T10:21:48.409Z,8.00
2022-12-29T10:24:56.145Z,8.02
2022-12-29T10:28:04.439Z,8.02
2022-12-29T10:31:15.338Z,8.00
2022-12-29T10:34:29.897Z,7.98
2022-12-29T10:37:50.205Z,7.97
2022-12-29T10:40:59.606Z,7.95
2022-12-29T10:44:03.127Z,7.93
2022-12-29T10:47:20.217Z,7.90
2022-12-29T10:50:26.276Z,7.87
2022-12-29T10:53:53.754Z,7.84
2022-12-29T10:57:06.429Z,7.82
2022-12-29T11:00:21.831Z,7.79
2022-12-29T11:03:38.069Z,7.78
2022-12-29T11:06:43.955Z,7.77
2022-12-29T11:09:48.715Z,7.77
2022-12-29T11:13:04.284Z,7.76
2022-12-29T11:16:07.909Z,7.77
2022-12-29T11:19:26.567Z,7.80
2022-12-29T11:22:30.076Z,7.81
2022-12-29T11:25:33.492Z,7.83
2022-12-29T11:28:38.963Z,7.83
2022-12-29T11:31:53.720Z,7.83
2022-12-29T11:35:02.793Z,7.83
2022-12-29T11:38:06.636Z,7.83
2022-12-29T11:41:14.716Z,7.82
2022-12-29T11:44:18.382Z,7.81
2022-12-29T11:47:29.761Z,7.80
2022-12-29T11:50:36.329Z,7.79
2022-12-29T11:53:48.822Z,7.79
2022-12-29T11:56:52.977Z,7.80
2022-12-29T11:59:58.820Z,7.80
2022-12-29T12:03:24.455Z,7.80
2022-12-29T12:06:29.769Z,7.79
2022-12-29T12:09:36.098Z,7.79
2022-12-29T12:12:45.861Z,7.79
2022-12-29T12:15:58.416Z,7.78
2022-12-29T12:19:05.296Z,7.77
2022-12-29T12:22:23.145Z,7.77
2022-12-29T12:25:38.721Z,7.75
2022-12-29T12:29:02.110Z,7.73
2022-12-29T12:32:26.187Z,7.72
2022-12-29T12:35:44.971Z,7.72
2022-12-29T12:39:11.862Z,7.70
2022-12-29T12:42:43.851Z,7.69
2022-12-29T12:46:08.786Z,7.69
2022-12-29T12:49:29.645Z,7.69
2022-12-29T12:53:02.707Z,7.70
2022-12-29T12:56:48.733Z,7.72
2022-12-29T12:59:51.985Z,7.74
2022-12-29T13:03:01.394Z,7.76
2022-12-29T13:06:19.543Z,7.79
2022-12-29T13:09:39.202Z,7.82
2022-12-29T13:13:15.077Z,7.85
2022-12-29T13:16:28.656Z,7.89
2022-12-29T13:19:42.528Z,7.93
2022-12-29T13:22:57.228Z,7.95
2022-12-29T13:26:21.227Z,7.98
2022-12-29T13:29:51.375Z,8.01
2022-12-29T13:33:25.238Z,8.03
2022-12-29T13:36:38.542Z,8.05
2022-12-29T13:39:52.602Z,8.07
2022-12-29T13:42:57.632Z,8.08
2022-12-29T13:46:07.915Z,8.10
2022-12-29T13:49:17.538Z,8.11
2022-12-29T13:52:42.540Z,8.12
2022-12-29T13:55:48.648Z,8.14
2022-12-29T13:58:59.077Z,8.15
2022-12-29T14:02:12.437Z,8.15
2022-12-29T14:05:18.819Z,8.16
2022-12-29T14:08:23.704Z,8.17
2022-12-29T14:11:37.210Z,8.19
2022-12-29T14:14:40.659Z,8.21
2022-12-29T14:17:45.253Z,8.21
2022-12-29T14:21:16.616Z,8.20
2022-12-29T14:24:38.679Z,8.19
2022-12-29T14:27:45.744Z,8.17
2022-12-29T14:30:54.741Z,8.16
2022-12-29T14:34:07.108Z,8.16
2022-12-29T14:37:24.515Z,8.14
2022-12-29T14:40:28.065Z,8.12
2022-12-29T14:43:31.463Z,8.11
2022-12-29T14:46:51.273Z,8.09
2022-12-29T14:49:56.047Z,8.07
2022-12-29T14:53:06.060Z,8.06
2022-12-29T14:56:12.200Z,8.05
2022-12-29T14:59:16.392Z,8.04
2022-12-29T15:02:27.314Z,8.03
2022-12-29T15:05:35.854Z,8.03
2022-12-29T15:08:46.531Z,8.03
2022-12-29T15:11:53.356Z,8.02
2022-12-29T15:15:02.482Z,8.01
2022-12-29T15:18:23.302Z,8.01
2022-12-29T15:21:34.873Z,8.01
2022-12-29T15:24:43.687Z,8.01
2022-12-29T15:27:56.765Z,8.01
2022-12-29T15:31:05.833Z,8.01
2022-12-29T15:34:12.989Z,8.01
2022-12-29T15:37:37.445Z,8.00
2022-12-29T15:40:40.781Z,8.00
2022-12-29T15:43:51.697Z,8.00
2022-12-29T15:46:55.342Z,8.00
2022-12-29T15:50:04.910Z,8.00
2022-12-29T15:53:16.735Z,8.00
2022-12-29T15:56:20.341Z,7.99
2022-12-29T15:59:32.941Z,8.00
2022-12-29T16:02:36.816Z,8.00
2022-12-29T16:05:41.562Z,8.00
2022-12-29T16:09:00.649Z,7.98
2022-12-29T16:12:17.916Z,7.98
2022-12-29T16:15:22.375Z,7.97
2022-12-29T16:18:33.935Z,7.97
2022-12-29T16:21:37.325Z,7.96
2022-12-29T16:24:41.684Z,7.96
2022-12-29T16:27:45.246Z,7.95
2022-12-29T16:30:58.106Z,7.95
2022-12-29T16:34:13.226Z,7.95
2022-12-29T16:37:33.146Z,7.95
2022-12-29T16:40:50.077Z,7.95
2022-12-29T16:44:14.595Z,7.94
2022-12-29T16:47:21.555Z,7.94
2022-12-29T16:50:28.558Z,7.94
2022-12-29T16:53:38.777Z,7.93
2022-12-29T16:56:46.387Z,7.93
2022-12-29T16:59:52.266Z,7.93
2022-12-29T17:02:58.684Z,7.92
2022-12-29T17:06:03.541Z,7.91
2022-12-29T17:09:25.224Z,7.91
2022-12-29T17:12:30.806Z,7.90
2022-12-29T17:15:35.788Z,7.88
2022-12-29T17:18:39.408Z,7.88
2022-12-29T17:21:43.074Z,7.87
2022-12-29T17:24:46.461Z,7.87
2022-12-29T17:27:54.944Z,7.87
2022-12-29T17:31:03.992Z,7.87
2022-12-29T17:34:11.784Z,7.86
2022-12-29T17:37:24.345Z,7.86
2022-12-29T17:40:30.666Z,7.86
2022-12-29T17:43:37.057Z,7.85
2022-12-29T17:46:40.693Z,7.84
2022-12-29T17:49:47.354Z,7.84
2022-12-29T17:53:00.778Z,7.84
2022-12-29T17:56:04.535Z,7.83
2022-12-29T17:59:14.307Z,7.82
2022-12-29T18:02:25.740Z,7.80
2022-12-29T18:05:31.024Z,7.78
2022-12-29T18:08:36.088Z,7.77
2022-12-29T18:11:44.182Z,7.76
2022-12-29T18:14:47.427Z,7.75
2022-12-29T18:17:58.008Z,7.74
2022-12-29T18:21:01.511Z,7.73
2022-12-29T18:24:05.097Z,7.72
2022-12-29T18:27:16.185Z,7.71
2022-12-29T18:30:19.518Z,7.70
2022-12-29T18:33:26.501Z,7.70
2022-12-29T18:36:30.234Z,7.68
2022-12-29T18:39:33.833Z,7.67
2022-12-29T18:42:37.128Z,7.66
2022-12-29T18:45:40.481Z,7.64
2022-12-29T18:48:43.770Z,7.63
2022-12-29T18:51:47.680Z,7.62
2022-12-29T18:54:51.038Z,7.60
2022-12-29T18:57:54.308Z,7.59
2022-12-29T19:00:57.659Z,7.56
2022-12-29T19:04:00.938Z,7.54
2022-12-29T19:07:04.452Z,7.53
2022-12-29T19:10:08.075Z,7.52
2022-12-29T19:13:23.637Z,7.50
2022-12-29T19:16:27.380Z,7.49
2022-12-29T19:19:30.642Z,7.48
2022-12-29T19:22:33.876Z,7.48
2022-12-29T19:25:37.743Z,7.47
2022-12-29T19:28:40.976Z,7.47
2022-12-29T19:31:44.358Z,7.46
2022-12-29T19:34:48.918Z,7.46
2022-12-29T19:37:53.186Z,7.46
2022-12-29T19:40:56.782Z,7.46
2022-12-29T19:44:00.951Z,7.46
2022-12-29T19:47:04.225Z,7.46
2022-12-29T19:50:10.439Z,7.45
2022-12-29T19:53:14.567Z,7.44
2022-12-29T19:56:18.595Z,7.43
2022-12-29T19:59:22.028Z,7.42
2022-12-29T20:02:30.990Z,7.41
2022-12-29T20:05:34.757Z,7.39
2022-12-29T20:08:39.413Z,7.37
2022-12-29T20:11:43.012Z,7.34
2022-12-29T20:14:46.397Z,7.33
2022-12-29T20:21:16.666Z,7.30
2022-12-29T20:24:20.001Z,7.29
2022-12-29T20:27:23.333Z,7.27
2022-12-29T20:30:26.583Z,7.26
2022-12-29T20:33:32.273Z,7.24
2022-12-29T20:36:39.089Z,7.22
2022-12-29T20:39:43.933Z,7.21
2022-12-29T20:42:47.234Z,7.20
2022-12-29T20:45:51.229Z,7.18
2022-12-29T20:48:54.670Z,7.16
2022-12-29T20:52:06.931Z,7.15
2022-12-29T20:55:10.978Z,7.13
2022-12-29T20:58:23.469Z,7.13
2022-12-29T21:01:27.904Z,7.12
2022-12-29T21:04:56.996Z,7.12
2022-12-29T21:07:55.593Z,7.12
2022-12-29T21:10:59.635Z,7.12
2022-12-29T21:14:09.236Z,7.11
2022-12-29T21:17:12.564Z,7.11
2022-12-29T21:20:30.133Z,7.12
2022-12-29T21:23:33.977Z,7.11
2022-12-29T21:26:37.318Z,7.11
2022-12-29T21:29:40.736Z,7.11
2022-12-29T21:32:43.990Z,7.10
2022-12-29T21:35:48.502Z,7.09
2022-12-29T21:38:52.779Z,7.09
2022-12-29T21:42:00.347Z,7.08
2022-12-29T21:45:22.986Z,7.08
2022-12-29T21:48:28.701Z,7.07
2022-12-29T21:51:50.563Z,7.07
2022-12-29T21:55:05.127Z,7.07
2022-12-29T21:58:27.639Z,7.07
2022-12-29T22:01:52.523Z,7.05
2022-12-29T22:05:14.417Z,7.05
2022-12-29T22:08:36.281Z,7.04
2022-12-29T22:11:58.074Z,7.03
2022-12-29T22:15:01.487Z,7.00
2022-12-29T22:18:05.243Z,6.98
2022-12-29T22:21:11.060Z,6.97
2022-12-29T22:24:14.291Z,6.96
2022-12-29T22:27:17.692Z,6.95
2022-12-29T22:30:21.011Z,6.93
2022-12-29T22:33:24.333Z,6.92
2022-12-29T22:36:28.684Z,6.91
2022-12-29T22:39:31.877Z,6.90
2022-12-29T22:42:35.115Z,6.89
2022-12-29T22:45:41.829Z,6.88
2022-12-29T22:48:45.112Z,6.87
2022-12-29T22:51:48.563Z,6.86
2022-12-29T22:54:51.773Z,6.84
2022-12-29T22:57:55.002Z,6.84
2022-12-29T23:00:58.367Z,6.83
2022-12-29T23:04:44.288Z,6.83
2022-12-29T23:07:25.418Z,6.83
2022-12-29T23:10:28.659Z,6.82
2022-12-29T23:13:33.101Z,6.81
2022-12-29T23:16:36.328Z,6.81
2022-12-29T23:19:39.632Z,6.81
2022-12-29T23:22:42.856Z,6.81
2022-12-29T23:25:46.092Z,6.81
2022-12-29T23:28:53.399Z,6.79
2022-12-29T23:31:59.487Z,6.79
2022-12-29T23:35:02.707Z,6.79
2022-12-29T23:38:05.950Z,6.79
2022-12-29T23:41:10.040Z,6.79
2022-12-29T23:44:13.420Z,6.78
2022-12-29T23:47:16.644Z,6.78
2022-12-29T23:50:19.891Z,6.78
2022-12-29T23:53:23.160Z,6.77
2022-12-29T23:56:26.564Z,6.76
2022-12-29T23:59:29.825Z,6.76
